createdAt,value
2023-02-06T00:01:43.370Z,20.38
2023-02-06T00:04:12.153Z,20.05
2023-02-06T00:06:40.531Z,20.77
2023-02-06T00:09:09.105Z,21.67
2023-02-06T00:11:37.946Z,26.52
2023-02-06T00:14:07.173Z,27.23
2023-02-06T00:16:37.242Z,23.80
2023-02-06T00:19:05.924Z,23.38
2023-02-06T00:21:35.801Z,23.35
2023-02-06T00:24:04.812Z,24.90
2023-02-06T00:26:33.651Z,21.25
2023-02-06T00:29:05.001Z,25.88
2023-02-06T00:31:33.794Z,24.77
2023-02-06T00:34:04.412Z,25.33
2023-02-06T00:36:34.415Z,26.38
2023-02-06T00:39:03.204Z,24.75
2023-02-06T00:41:31.757Z,25.15
2023-02-06T00:44:00.061Z,26.23
2023-02-06T00:46:28.447Z,26.80
2023-02-06T00:48:56.794Z,23.25
2023-02-06T00:51:26.688Z,27.13
2023-02-06T00:53:54.935Z,27.50
2023-02-06T00:56:23.358Z,30.42
2023-02-06T00:58:52.099Z,27.90
2023-02-06T01:01:20.533Z,27.65
2023-02-06T01:03:48.811Z,29.15
2023-02-06T01:06:17.189Z,24.10
2023-02-06T01:08:47.321Z,23.45
2023-02-06T01:11:18.400Z,27.95
2023-02-06T01:13:46.838Z,26.42
2023-02-06T01:16:20.344Z,27.35
2023-02-06T01:18:50.223Z,24.20
2023-02-06T01:21:21.434Z,21.95
2023-02-06T01:23:53.848Z,28.65
2023-02-06T01:26:24.612Z,24.02
2023-02-06T01:28:53.019Z,21.03
2023-02-06T01:31:23.939Z,27.33
2023-02-06T01:33:52.964Z,26.27
2023-02-06T01:36:21.921Z,27.38
2023-02-06T01:38:52.816Z,24.60
2023-02-06T01:41:24.064Z,26.23
2023-02-06T01:44:10.689Z,28.58
2023-02-06T01:46:39.862Z,27.13
2023-02-06T01:49:11.296Z,30.95
2023-02-06T01:51:40.981Z,27.42
2023-02-06T01:54:11.607Z,24.88
2023-02-06T01:56:44.533Z,22.13
2023-02-06T01:59:13.699Z,27.63
2023-02-06T02:01:42.818Z,25.38
2023-02-06T02:04:17.458Z,25.08
2023-02-06T02:06:50.757Z,25.70
2023-02-06T02:09:21.668Z,24.05
2023-02-06T02:11:49.931Z,34.25
2023-02-06T02:14:18.768Z,22.35
2023-02-06T02:17:02.382Z,26.45
2023-02-06T02:20:06.445Z,23.55
2023-02-06T02:22:52.671Z,27.95
2023-02-06T02:25:58.290Z,25.08
2023-02-06T02:29:04.309Z,22.30
2023-02-06T02:31:57.519Z,27.40
2023-02-06T02:34:55.395Z,25.75
2023-02-06T02:37:33.477Z,27.45
2023-02-06T02:40:11.866Z,24.95
2023-02-06T02:42:48.862Z,25.65
2023-02-06T02:45:22.427Z,25.48
2023-02-06T02:47:57.544Z,24.50
2023-02-06T02:50:29.004Z,25.60
2023-02-06T02:52:59.582Z,23.02
2023-02-06T02:55:27.915Z,24.65
2023-02-06T02:58:06.530Z,25.10
2023-02-06T03:00:41.255Z,23.08
2023-02-06T03:03:11.931Z,30.50
2023-02-06T03:06:03.950Z,26.40
2023-02-06T03:08:43.592Z,27.63
2023-02-06T03:11:14.991Z,27.65
2023-02-06T03:13:50.168Z,25.63
2023-02-06T03:16:23.641Z,27.60
2023-02-06T03:18:58.393Z,26.63
2023-02-06T03:21:30.319Z,28.35
2023-02-06T03:24:04.428Z,34.47
2023-02-06T03:26:33.749Z,27.38
2023-02-06T03:29:05.444Z,30.38
2023-02-06T03:31:37.337Z,31.52
2023-02-06T03:34:13.673Z,35.65
2023-02-06T03:36:44.106Z,36.75
2023-02-06T03:39:13.068Z,36.53
2023-02-06T03:41:42.981Z,42.33
2023-02-06T03:44:17.561Z,30.75
2023-02-06T03:46:47.374Z,28.90
2023-02-06T03:49:18.674Z,31.02
2023-02-06T03:51:52.927Z,35.28
2023-02-06T03:54:24.725Z,35.63
2023-02-06T03:56:54.983Z,32.35
2023-02-06T03:59:23.452Z,33.65
2023-02-06T04:01:55.181Z,30.05
2023-02-06T04:04:29.301Z,32.85
2023-02-06T04:07:01.873Z,32.65
2023-02-06T04:09:30.176Z,35.40
2023-02-06T04:11:58.421Z,34.03
2023-02-06T04:14:26.818Z,33.55
2023-02-06T04:16:56.404Z,29.50
2023-02-06T04:19:24.895Z,37.97
2023-02-06T04:21:53.350Z,31.88
2023-02-06T04:24:23.111Z,33.53
2023-02-06T04:26:51.764Z,32.38
2023-02-06T04:29:20.251Z,26.02
2023-02-06T04:31:48.778Z,33.67
2023-02-06T04:34:17.048Z,27.95
2023-02-06T04:36:45.729Z,33.13
2023-02-06T04:39:14.272Z,25.70
2023-02-06T04:41:44.673Z,34.30
2023-02-06T04:44:13.106Z,30.45
2023-02-06T04:46:43.316Z,30.90
2023-02-06T04:49:11.722Z,26.13
2023-02-06T04:51:40.123Z,30.05
2023-02-06T04:54:08.843Z,25.00
2023-02-06T04:56:37.099Z,26.65
2023-02-06T04:59:07.166Z,24.20
2023-02-06T05:01:36.660Z,30.57
2023-02-06T05:04:05.577Z,26.45
2023-02-06T05:06:34.039Z,27.38
2023-02-06T05:09:04.061Z,29.52
2023-02-06T05:11:32.581Z,27.40
2023-02-06T05:14:00.754Z,30.35
2023-02-06T05:16:30.565Z,30.10
2023-02-06T05:18:58.926Z,31.92
2023-02-06T05:21:28.697Z,22.77
2023-02-06T05:23:57.247Z,27.67
2023-02-06T05:26:25.480Z,26.15
2023-02-06T05:28:54.114Z,29.10
2023-02-06T05:31:22.689Z,30.45
2023-02-06T05:33:52.988Z,29.75
2023-02-06T05:36:22.317Z,31.83
2023-02-06T05:38:50.881Z,36.25
2023-02-06T05:41:19.947Z,26.60
2023-02-06T05:43:48.444Z,29.70
2023-02-06T05:46:16.935Z,29.45
2023-02-06T05:48:45.256Z,30.20
2023-02-06T05:51:16.060Z,27.80
2023-02-06T05:53:44.959Z,31.37
2023-02-06T05:56:13.314Z,28.40
2023-02-06T05:58:41.526Z,29.48
2023-02-06T06:01:11.386Z,36.97
2023-02-06T06:03:39.692Z,35.67
2023-02-06T06:06:09.283Z,35.67
2023-02-06T06:08:38.980Z,33.22
2023-02-06T06:11:08.214Z,41.50
2023-02-06T06:13:36.748Z,32.65
2023-02-06T06:16:06.538Z,39.47
2023-02-06T06:18:34.878Z,39.70
2023-02-06T06:21:03.397Z,44.65
2023-02-06T06:23:31.676Z,55.17
2023-02-06T06:26:01.772Z,40.63
2023-02-06T06:28:30.188Z,45.20
2023-02-06T06:31:02.802Z,41.40
2023-02-06T06:33:31.595Z,49.20
2023-02-06T06:36:00.334Z,42.50
2023-02-06T06:38:28.488Z,42.05
2023-02-06T06:40:57.008Z,45.95
2023-02-06T06:43:28.698Z,43.53
2023-02-06T06:45:57.285Z,39.78
2023-02-06T06:48:25.854Z,41.38
2023-02-06T06:50:54.172Z,37.80
2023-02-06T06:53:23.017Z,33.92
2023-02-06T06:55:51.586Z,34.60
2023-02-06T06:58:20.033Z,39.15
2023-02-06T07:00:50.062Z,34.78
2023-02-06T07:03:18.958Z,35.83
2023-02-06T07:05:47.514Z,38.65
2023-02-06T07:08:15.925Z,39.65
2023-02-06T07:10:46.835Z,35.85
2023-02-06T07:13:15.698Z,34.28
2023-02-06T07:15:44.588Z,31.63
2023-02-06T07:18:14.358Z,34.63
2023-02-06T07:20:43.169Z,35.05
2023-02-06T07:23:11.469Z,40.63
2023-02-06T07:25:39.730Z,45.85
2023-02-06T07:28:08.272Z,42.13
2023-02-06T07:30:37.074Z,36.50
2023-02-06T07:33:06.793Z,38.47
2023-02-06T07:35:36.969Z,37.08
2023-02-06T07:38:05.585Z,37.65
2023-02-06T07:40:44.812Z,43.08
2023-02-06T07:43:14.420Z,35.38
2023-02-06T07:45:43.255Z,40.60
2023-02-06T07:48:11.942Z,48.83
2023-02-06T07:50:41.632Z,41.70
2023-02-06T07:53:10.430Z,47.55
2023-02-06T07:55:39.404Z,34.65
2023-02-06T07:58:07.985Z,33.55
2023-02-06T08:00:36.824Z,36.47
2023-02-06T08:03:05.901Z,38.45
2023-02-06T08:05:35.594Z,35.97
2023-02-06T08:08:05.734Z,38.05
2023-02-06T08:10:34.269Z,40.47
2023-02-06T08:13:02.501Z,38.35
2023-02-06T08:15:30.920Z,36.38
2023-02-06T08:17:59.206Z,40.42
2023-02-06T08:20:27.977Z,38.70
2023-02-06T08:22:57.109Z,35.05
2023-02-06T08:25:27.685Z,32.65
2023-02-06T08:27:56.889Z,32.42
2023-02-06T08:30:25.971Z,37.20
2023-02-06T08:32:54.515Z,33.03
2023-02-06T08:35:22.964Z,33.40
2023-02-06T08:37:51.409Z,38.45
2023-02-06T08:40:21.371Z,30.63
2023-02-06T08:42:52.515Z,33.75
2023-02-06T08:45:21.119Z,35.40
2023-02-06T08:47:49.691Z,29.30
2023-02-06T08:50:18.145Z,40.20
2023-02-06T08:52:46.659Z,35.47
2023-02-06T08:55:15.155Z,32.85
2023-02-06T08:57:43.707Z,39.03
2023-02-06T09:00:15.320Z,35.33
2023-02-06T09:02:43.872Z,38.53
2023-02-06T09:05:12.891Z,35.60
2023-02-06T09:07:43.747Z,40.85
2023-02-06T09:10:26.706Z,35.53
2023-02-06T09:12:55.873Z,35.53
2023-02-06T09:15:25.977Z,35.08
2023-02-06T09:17:54.429Z,35.85
2023-02-06T09:20:22.817Z,38.47
2023-02-06T09:22:51.080Z,34.85
2023-02-06T09:25:19.946Z,35.83
2023-02-06T09:27:48.324Z,38.67
2023-02-06T09:30:17.223Z,29.13
2023-02-06T09:32:47.128Z,32.45
2023-02-06T09:35:15.709Z,37.45
2023-02-06T09:37:44.278Z,29.80
2023-02-06T09:40:15.786Z,38.60
2023-02-06T09:42:44.897Z,33.47
2023-02-06T09:45:16.461Z,34.38
2023-02-06T09:47:49.415Z,38.45
2023-02-06T09:50:25.272Z,34.78
2023-02-06T09:53:04.748Z,41.50
2023-02-06T09:55:40.068Z,42.42
2023-02-06T09:58:19.372Z,36.83
2023-02-06T10:00:54.736Z,42.22
2023-02-06T10:03:48.071Z,33.90
2023-02-06T10:06:21.095Z,33.80
2023-02-06T10:08:59.053Z,35.95
2023-02-06T10:11:39.058Z,37.72
2023-02-06T10:14:12.453Z,34.47
2023-02-06T10:16:45.584Z,34.20
2023-02-06T10:19:23.590Z,33.10
2023-02-06T10:21:57.614Z,31.50
2023-02-06T10:24:35.464Z,26.65
2023-02-06T10:27:10.358Z,30.40
2023-02-06T10:29:40.558Z,31.30
2023-02-06T10:32:24.758Z,27.75
2023-02-06T10:35:25.986Z,25.90
2023-02-06T10:38:10.261Z,27.83
2023-02-06T10:40:48.798Z,26.98
2023-02-06T10:43:26.257Z,30.90
2023-02-06T10:46:08.194Z,27.48
2023-02-06T10:51:19.780Z,28.60
2023-02-06T10:53:53.110Z,32.25
2023-02-06T10:56:26.750Z,28.65
2023-02-06T10:58:59.688Z,29.00
2023-02-06T11:01:33.211Z,34.17
2023-02-06T11:04:06.830Z,33.03
2023-02-06T11:06:37.381Z,31.35
2023-02-06T11:09:05.793Z,32.80
2023-02-06T11:11:40.171Z,30.65
2023-02-06T11:14:15.590Z,32.28
2023-02-06T11:16:46.525Z,30.75
2023-02-06T11:19:21.322Z,30.92
2023-02-06T11:22:08.625Z,31.67
2023-02-06T11:24:38.416Z,34.88
2023-02-06T11:27:16.052Z,32.97
2023-02-06T11:29:48.053Z,33.47
2023-02-06T11:32:31.190Z,28.05
2023-02-06T11:35:02.858Z,27.23
2023-02-06T11:37:36.570Z,26.05
2023-02-06T11:40:27.397Z,28.45
2023-02-06T11:43:16.019Z,25.98
2023-02-06T11:45:45.603Z,28.55
2023-02-06T11:48:36.513Z,29.02
2023-02-06T11:51:05.999Z,28.00
2023-02-06T11:53:36.620Z,24.77
2023-02-06T11:56:08.258Z,24.02
2023-02-06T11:58:37.229Z,28.63
2023-02-06T12:01:09.708Z,31.02
2023-02-06T12:03:46.368Z,27.13
2023-02-06T12:06:18.794Z,25.10
2023-02-06T12:08:51.594Z,20.27
2023-02-06T12:11:25.166Z,18.55
2023-02-06T12:13:57.305Z,17.05
2023-02-06T12:16:26.297Z,19.58
2023-02-06T12:18:58.417Z,18.33
2023-02-06T12:21:35.417Z,21.08
2023-02-06T12:24:15.188Z,16.80
2023-02-06T12:26:44.571Z,18.35
2023-02-06T12:29:20.762Z,18.85
2023-02-06T12:31:54.269Z,19.77
2023-02-06T12:34:28.157Z,19.58
2023-02-06T12:37:11.029Z,21.20
2023-02-06T12:39:43.099Z,18.30
2023-02-06T12:42:33.884Z,24.38
2023-02-06T12:45:09.016Z,22.27
2023-02-06T12:47:43.473Z,25.23
2023-02-06T12:50:16.960Z,22.48
2023-02-06T12:52:50.709Z,19.63
2023-02-06T12:55:25.032Z,20.13
2023-02-06T12:57:55.141Z,18.08
2023-02-06T13:01:02.123Z,22.92
2023-02-06T13:03:34.438Z,20.15
2023-02-06T13:06:13.203Z,20.00
2023-02-06T13:08:46.324Z,25.08
2023-02-06T13:11:28.975Z,17.70
2023-02-06T13:14:04.831Z,25.23
2023-02-06T13:16:44.088Z,20.30
2023-02-06T13:19:32.998Z,19.95
2023-02-06T13:22:32.421Z,21.15
2023-02-06T13:25:23.121Z,34.25
2023-02-06T13:27:53.257Z,22.42
2023-02-06T13:30:50.168Z,35.90
2023-02-06T13:33:21.246Z,34.83
2023-02-06T13:35:57.814Z,29.02
2023-02-06T13:38:30.566Z,32.03
2023-02-06T13:43:50.794Z,29.45
2023-02-06T13:46:23.017Z,26.15
2023-02-06T13:49:11.972Z,24.33
2023-02-06T13:52:05.139Z,19.58
2023-02-06T13:55:13.663Z,19.00
2023-02-06T13:57:55.915Z,18.52
2023-02-06T14:00:30.368Z,18.20
2023-02-06T14:03:07.195Z,18.27
2023-02-06T14:05:49.706Z,20.23
2023-02-06T14:08:25.040Z,22.77
2023-02-06T14:11:28.757Z,18.38
2023-02-06T14:14:24.914Z,20.00
2023-02-06T14:17:06.248Z,21.05
2023-02-06T14:19:42.700Z,16.83
2023-02-06T14:22:23.243Z,20.20
2023-02-06T14:25:06.606Z,21.63
2023-02-06T14:27:51.846Z,20.27
2023-02-06T14:30:30.857Z,18.42
2023-02-06T14:33:12.225Z,18.58
2023-02-06T14:35:54.713Z,17.27
2023-02-06T14:38:41.142Z,19.38
2023-02-06T14:41:09.969Z,20.88
2023-02-06T14:43:42.049Z,26.50
2023-02-06T14:46:16.726Z,21.02
2023-02-06T14:48:50.451Z,19.58
2023-02-06T14:51:28.540Z,21.83
2023-02-06T14:53:59.111Z,17.55
2023-02-06T14:56:31.588Z,20.40
2023-02-06T14:59:15.482Z,22.02
2023-02-06T15:01:47.971Z,20.13
2023-02-06T15:04:21.987Z,16.95
2023-02-06T15:06:55.738Z,18.50
2023-02-06T15:09:27.922Z,15.45
2023-02-06T15:11:59.182Z,21.30
2023-02-06T15:14:30.103Z,19.85
2023-02-06T15:17:00.275Z,18.97
2023-02-06T15:19:31.443Z,17.25
2023-02-06T15:22:02.772Z,17.70
2023-02-06T15:25:05.774Z,17.38
2023-02-06T15:27:36.621Z,20.85
2023-02-06T15:30:21.748Z,21.75
2023-02-06T15:32:53.220Z,23.80
2023-02-06T15:35:25.585Z,21.25
2023-02-06T15:37:55.677Z,24.35
2023-02-06T15:40:29.892Z,26.00
2023-02-06T15:42:59.986Z,24.88
2023-02-06T15:45:32.192Z,24.23
2023-02-06T15:48:11.590Z,31.23
2023-02-06T15:50:41.371Z,26.58
2023-02-06T15:53:19.543Z,30.80
2023-02-06T15:55:56.529Z,32.97
2023-02-06T15:58:26.064Z,30.50
2023-02-06T16:00:56.764Z,31.77
2023-02-06T16:03:28.358Z,32.63
2023-02-06T16:05:59.518Z,34.33
2023-02-06T16:08:32.143Z,31.73
2023-02-06T16:11:04.132Z,36.42
2023-02-06T16:13:33.596Z,35.83
2023-02-06T16:16:05.086Z,38.80
2023-02-06T16:21:21.450Z,28.38
2023-02-06T16:23:53.202Z,31.55
2023-02-06T16:26:24.106Z,31.15
2023-02-06T16:28:59.314Z,27.30
2023-02-06T16:31:29.643Z,54.03
2023-02-06T16:34:03.456Z,57.95
2023-02-06T16:36:34.350Z,52.50
2023-02-06T16:39:04.667Z,53.67
2023-02-06T16:41:37.627Z,46.58
2023-02-06T16:44:15.202Z,63.05
2023-02-06T16:46:44.230Z,58.25
2023-02-06T16:49:14.446Z,55.45
2023-02-06T16:51:47.904Z,65.10
2023-02-06T16:54:29.107Z,52.42
2023-02-06T16:57:02.674Z,55.63
2023-02-06T16:59:31.026Z,52.45
2023-02-06T17:01:59.397Z,47.55
2023-02-06T17:04:27.820Z,49.28
2023-02-06T17:06:58.202Z,43.72
2023-02-06T17:09:26.542Z,43.97
2023-02-06T17:11:55.164Z,41.70
2023-02-06T17:14:23.959Z,42.47
2023-02-06T17:16:52.489Z,32.80
2023-02-06T17:19:22.256Z,39.67
2023-02-06T17:21:50.579Z,38.95
2023-02-06T17:24:20.087Z,42.45
2023-02-06T17:26:48.515Z,41.38
2023-02-06T17:29:17.097Z,44.63
2023-02-06T17:31:45.965Z,45.35
2023-02-06T17:34:14.512Z,45.83
2023-02-06T17:36:43.379Z,47.25
2023-02-06T17:39:13.335Z,46.97
2023-02-06T17:41:42.876Z,45.47
2023-02-06T17:44:11.790Z,46.58
2023-02-06T17:46:40.674Z,49.50
2023-02-06T17:49:09.068Z,37.22
2023-02-06T17:51:37.453Z,36.92
2023-02-06T17:54:06.600Z,40.88
2023-02-06T17:56:35.484Z,44.35
2023-02-06T17:59:05.546Z,49.20
2023-02-06T18:01:34.467Z,41.28
2023-02-06T18:04:04.380Z,44.60
2023-02-06T18:06:34.950Z,48.25
2023-02-06T18:09:04.056Z,50.85
2023-02-06T18:11:32.602Z,51.30
2023-02-06T18:14:00.963Z,52.72
2023-02-06T18:16:30.893Z,42.30
2023-02-06T18:19:02.559Z,55.30
2023-02-06T18:21:31.682Z,51.40
2023-02-06T18:24:00.215Z,46.05
2023-02-06T18:26:28.755Z,55.35
2023-02-06T18:28:57.223Z,46.22
2023-02-06T18:31:28.610Z,46.78
2023-02-06T18:33:58.921Z,56.92
2023-02-06T18:36:28.376Z,57.58
2023-02-06T18:38:57.671Z,54.15
2023-02-06T18:41:43.392Z,55.60
2023-02-06T18:44:12.527Z,49.85
2023-02-06T18:46:40.976Z,54.58
2023-02-06T18:49:10.738Z,51.47
2023-02-06T18:51:39.080Z,47.92
2023-02-06T18:54:10.023Z,42.42
2023-02-06T18:56:39.052Z,53.78
2023-02-06T18:59:07.808Z,47.85
2023-02-06T19:01:36.500Z,47.92
2023-02-06T19:04:06.447Z,46.90
2023-02-06T19:06:37.863Z,48.22
2023-02-06T19:09:08.089Z,44.55
2023-02-06T19:11:37.516Z,53.90
2023-02-06T19:14:07.836Z,53.50
2023-02-06T19:16:38.563Z,46.53
2023-02-06T19:19:07.917Z,41.55
2023-02-06T19:21:38.047Z,42.08
2023-02-06T19:24:07.504Z,54.83
2023-02-06T19:26:35.902Z,62.85
2023-02-06T19:29:05.121Z,55.33
2023-02-06T19:31:33.355Z,52.28
2023-02-06T19:34:02.434Z,47.53
2023-02-06T19:36:31.969Z,46.28
2023-02-06T19:39:03.680Z,46.00
2023-02-06T19:41:34.757Z,40.47
2023-02-06T19:44:06.248Z,40.95
2023-02-06T19:46:35.642Z,43.80
2023-02-06T19:49:05.769Z,34.55
2023-02-06T19:51:38.209Z,42.67
2023-02-06T19:54:08.577Z,35.30
2023-02-06T19:56:40.834Z,33.17
2023-02-06T19:59:18.209Z,34.53
2023-02-06T20:01:47.818Z,27.40
2023-02-06T20:04:17.094Z,29.70
2023-02-06T20:06:45.640Z,29.15
2023-02-06T20:09:16.959Z,34.75
2023-02-06T20:11:46.310Z,28.00
2023-02-06T20:14:14.766Z,29.77
2023-02-06T20:16:44.206Z,26.10
2023-02-06T20:19:15.654Z,30.13
2023-02-06T20:21:46.298Z,30.30
2023-02-06T20:24:20.928Z,35.88
2023-02-06T20:26:51.121Z,30.33
2023-02-06T20:29:21.947Z,30.60
2023-02-06T20:31:51.325Z,36.17
2023-02-06T20:34:20.405Z,30.42
2023-02-06T20:36:49.515Z,33.75
2023-02-06T20:39:19.677Z,36.47
2023-02-06T20:41:49.693Z,34.90
2023-02-06T20:44:19.413Z,32.67
2023-02-06T20:46:48.055Z,38.33
2023-02-06T20:49:19.799Z,35.97
2023-02-06T20:51:49.963Z,38.30
2023-02-06T20:54:21.032Z,50.35
2023-02-06T20:56:49.838Z,46.67
2023-02-06T20:59:20.377Z,51.13
2023-02-06T21:01:48.953Z,49.63
2023-02-06T21:04:18.250Z,49.75
2023-02-06T21:06:48.047Z,48.85
2023-02-06T21:09:17.245Z,45.50
2023-02-06T21:11:50.230Z,41.45
2023-02-06T21:14:19.415Z,46.40
2023-02-06T21:16:48.427Z,46.00
2023-02-06T21:19:19.609Z,39.75
2023-02-06T21:21:48.455Z,36.30
2023-02-06T21:24:18.169Z,43.85
2023-02-06T21:26:48.483Z,51.45
2023-02-06T21:29:17.590Z,43.45
2023-02-06T21:31:46.701Z,53.17
2023-02-06T21:34:17.912Z,59.15
2023-02-06T21:36:47.429Z,64.95
2023-02-06T21:39:18.454Z,56.40
2023-02-06T21:41:51.885Z,47.83
2023-02-06T21:44:20.799Z,44.03
2023-02-06T21:46:49.275Z,45.80
2023-02-06T21:49:17.563Z,41.40
2023-02-06T21:51:46.189Z,44.95
2023-02-06T21:54:14.494Z,45.55
2023-02-06T21:56:43.307Z,60.88
2023-02-06T21:59:14.100Z,68.72
2023-02-06T22:01:42.805Z,46.80
2023-02-06T22:04:12.592Z,52.08
2023-02-06T22:06:41.377Z,36.63
2023-02-06T22:09:15.331Z,39.55
2023-02-06T22:11:45.132Z,45.03
2023-02-06T22:14:17.932Z,42.70
2023-02-06T22:16:47.315Z,48.10
2023-02-06T22:19:17.336Z,43.83
2023-02-06T22:21:46.163Z,38.70
2023-02-06T22:24:14.993Z,48.58
2023-02-06T22:26:43.903Z,50.38
2023-02-06T22:29:16.279Z,62.13
2023-02-06T22:31:45.835Z,67.97
2023-02-06T22:34:17.917Z,89.78
2023-02-06T22:36:46.970Z,71.57
2023-02-06T22:39:16.978Z,78.25
2023-02-06T22:41:46.916Z,65.20
2023-02-06T22:44:17.937Z,72.45
2023-02-06T22:46:48.525Z,62.25
2023-02-06T22:49:17.348Z,63.23
2023-02-06T22:51:46.393Z,72.25
2023-02-06T22:54:15.819Z,70.63
2023-02-06T22:56:44.904Z,73.88
2023-02-06T22:59:18.000Z,68.85
2023-02-06T23:01:48.132Z,75.78
2023-02-06T23:04:18.329Z,79.38
2023-02-06T23:06:47.236Z,74.88
2023-02-06T23:09:18.076Z,77.65
2023-02-06T23:11:47.091Z,78.22
2023-02-06T23:14:18.773Z,74.82
2023-02-06T23:16:48.553Z,70.35
2023-02-06T23:19:18.789Z,77.55
2023-02-06T23:21:49.158Z,61.55
2023-02-06T23:24:17.580Z,70.55
2023-02-06T23:26:48.205Z,79.53
2023-02-06T23:29:19.169Z,74.03
2023-02-06T23:31:48.690Z,70.80
2023-02-06T23:34:18.500Z,63.50
2023-02-06T23:36:47.327Z,59.65
2023-02-06T23:39:15.558Z,54.40
2023-02-06T23:41:43.916Z,61.63
2023-02-06T23:44:12.788Z,60.08
2023-02-06T23:46:42.662Z,55.13
2023-02-06T23:49:11.223Z,55.90
2023-02-06T23:51:39.764Z,54.35
2023-02-06T23:54:09.406Z,54.45
2023-02-06T23:56:38.496Z,54.10
2023-02-06T23:59:07.810Z,48.70
